Time;durP1;ratioP1;P1;durP2;ratioP2;P2;SDS_P1;SDS_P2;PMS_P1;PMS_P2;Temp;Humidity;BMP_temperature;BMP_pressure;BME280_temperature;BME280_humidity;BME280_pressure;Samples;Min_cycle;Max_cycle;Signal;HPM_P1;HPM_P2
2023/02/26 00:00:25;;;;;;;3.03;1.30;;;2.10;88.80;;;;;;5051702;28;20201;-69
2023/02/26 00:02:52;;;;;;;4.05;1.75;;;2.10;89.00;;;;;;5052119;28;20224;-69
2023/02/26 00:05:19;;;;;;;3.05;1.65;;;2.10;88.90;;;;;;5050798;28;20273;-69
2023/02/26 00:07:47;;;;;;;2.90;1.70;;;2.10;88.80;;;;;;5070728;28;20189;-69
2023/02/26 00:10:15;;;;;;;3.30;1.52;;;2.10;88.60;;;;;;5054803;28;20248;-69
2023/02/26 00:12:44;;;;;;;5.10;1.75;;;2.10;88.50;;;;;;5051673;28;20710;-70
2023/02/26 00:15:14;;;;;;;2.90;1.77;;;2.10;88.90;;;;;;5067272;28;20884;-70
2023/02/26 00:17:52;;;;;;;3.20;1.60;;;2.10;88.70;;;;;;5053700;28;20217;-68
2023/02/26 00:20:20;;;;;;;3.03;1.70;;;2.00;88.60;;;;;;5067871;28;20279;-69
2023/02/26 00:22:48;;;;;;;7.20;1.35;;;2.00;89.80;;;;;;5071522;28;20198;-69
2023/02/26 00:25:15;;;;;;;2.30;1.35;;;2.00;88.80;;;;;;5055802;28;20199;-69
2023/02/26 00:27:43;;;;;;;2.95;1.60;;;2.00;88.60;;;;;;5069091;28;20587;-69
2023/02/26 00:30:12;;;;;;;3.40;1.65;;;2.00;88.70;;;;;;5057442;28;20193;-70
2023/02/26 00:32:41;;;;;;;3.13;1.55;;;2.00;88.80;;;;;;5051657;28;20200;-69
2023/02/26 00:35:15;;;;;;;3.00;1.60;;;2.00;89.10;;;;;;5064772;28;20552;-73
2023/02/26 00:38:03;;;;;;;5.18;1.50;;;2.00;89.20;;;;;;5069469;28;20228;-69
2023/02/26 00:40:38;;;;;;;2.75;1.63;;;2.00;88.80;;;;;;5051740;28;20215;-70
2023/02/26 00:43:08;;;;;;;6.07;2.20;;;2.00;89.00;;;;;;5055232;28;20270;-70
2023/02/26 00:45:40;;;;;;;4.40;2.15;;;2.00;89.50;;;;;;5071530;28;20242;-70
2023/02/26 00:48:28;;;;;;;2.63;1.50;;;2.00;89.20;;;;;;5066779;28;20196;-69
2023/02/26 00:51:03;;;;;;;3.17;1.65;;;2.00;89.10;;;;;;5051450;28;20190;-69
2023/02/26 00:53:36;;;;;;;3.28;1.88;;;2.00;89.50;;;;;;5058433;28;20187;-70
2023/02/26 00:56:03;;;;;;;3.50;1.83;;;1.90;89.60;;;;;;5071582;28;20242;-70
2023/02/26 00:58:31;;;;;;;2.80;1.95;;;2.00;89.60;;;;;;5063728;28;20194;-70
2023/02/26 01:00:59;;;;;;;3.08;2.03;;;1.90;89.70;;;;;;5051194;28;20211;-69
2023/02/26 01:03:27;;;;;;;4.45;1.95;;;2.00;90.00;;;;;;5057793;28;20184;-69
2023/02/26 01:05:57;;;;;;;3.70;2.00;;;1.90;90.00;;;;;;5070823;28;20199;-71
2023/02/26 01:08:34;;;;;;;3.53;2.40;;;1.90;90.00;;;;;;5064689;28;20193;-69
2023/02/26 01:11:02;;;;;;;5.13;3.20;;;1.90;90.30;;;;;;5053598;28;20204;-69
2023/02/26 01:13:29;;;;;;;4.40;2.90;;;1.90;90.30;;;;;;5061289;28;20195;-69
2023/02/26 01:16:05;;;;;;;4.18;2.55;;;1.90;90.20;;;;;;5074738;28;20199;-70
2023/02/26 01:18:41;;;;;;;3.85;2.42;;;1.90;90.40;;;;;;5067409;28;20187;-69
2023/02/26 01:21:14;;;;;;;3.67;2.20;;;1.90;90.20;;;;;;5072654;28;20184;-69
2023/02/26 01:23:47;;;;;;;3.08;2.60;;;1.90;90.20;;;;;;5066902;28;20231;-70
2023/02/26 01:26:20;;;;;;;3.10;2.42;;;1.90;90.10;;;;;;5055049;28;20196;-69
2023/02/26 01:28:48;;;;;;;4.90;2.63;;;1.90;90.20;;;;;;5063660;28;20180;-70
2023/02/26 01:31:33;;;;;;;3.40;2.25;;;1.90;90.20;;;;;;5074710;28;20246;-70
2023/02/26 01:34:06;;;;;;;3.55;2.50;;;1.90;89.90;;;;;;5064135;28;20197;-70
2023/02/26 01:36:45;;;;;;;4.25;2.22;;;1.90;88.90;;;;;;5054515;28;20237;-71
2023/02/26 01:39:23;;;;;;;2.85;1.77;;;1.90;88.40;;;;;;5067039;28;20291;-70
2023/02/26 01:41:54;;;;;;;2.70;2.08;;;1.80;87.80;;;;;;5074810;28;20255;-69
2023/02/26 01:44:29;;;;;;;4.28;1.30;;;1.80;86.60;;;;;;5060927;28;20192;-69
2023/02/26 01:47:14;;;;;;;2.63;1.35;;;1.80;86.20;;;;;;5054519;28;20196;-70
2023/02/26 01:49:42;;;;;;;2.50;1.00;;;1.80;85.70;;;;;;5055904;28;20190;-70
2023/02/26 01:52:45;;;;;;;2.40;1.27;;;1.70;85.30;;;;;;5054384;28;20193;-69
2023/02/26 01:55:14;;;;;;;1.80;0.80;;;1.70;84.90;;;;;;5048359;28;20210;-71
2023/02/26 01:57:41;;;;;;;2.10;1.10;;;1.60;84.70;;;;;;5074464;28;20222;-70
2023/02/26 02:00:10;;;;;;;2.20;1.38;;;1.60;85.30;;;;;;5073946;28;20191;-69
2023/02/26 02:02:38;;;;;;;1.88;0.80;;;1.60;85.40;;;;;;5074080;28;20635;-69
2023/02/26 02:05:11;;;;;;;2.83;0.90;;;1.50;85.40;;;;;;5055041;28;20196;-69
2023/02/26 02:07:38;;;;;;;2.40;0.95;;;1.50;85.50;;;;;;5054388;28;20603;-69
2023/02/26 02:10:06;;;;;;;2.22;0.88;;;1.50;85.70;;;;;;5054313;28;20201;-68
2023/02/26 02:12:42;;;;;;;2.25;0.90;;;1.50;85.90;;;;;;5054070;28;20206;-69
2023/02/26 02:15:15;;;;;;;2.40;1.13;;;1.50;85.90;;;;;;5071048;28;20226;-70
2023/02/26 02:17:50;;;;;;;1.90;0.90;;;1.40;85.80;;;;;;5073923;28;20225;-70
2023/02/26 02:21:10;;;;;;;1.80;0.90;;;1.40;86.10;;;;;;5034007;28;20235;-70
2023/02/26 02:23:43;;;;;;;3.13;1.17;;;1.40;86.00;;;;;;5037093;28;20192;-70
2023/02/26 02:27:04;;;;;;;2.55;1.40;;;1.40;86.00;;;;;;5073769;28;20187;-70
2023/02/26 02:30:13;;;;;;;2.58;1.50;;;1.40;85.90;;;;;;4997881;28;20235;-70
2023/02/26 02:32:47;;;;;;;2.38;1.30;;;1.40;85.90;;;;;;4963301;28;20199;-69
2023/02/26 02:35:21;;;;;;;3.40;1.30;;;1.40;85.50;;;;;;5057753;28;20194;-69
2023/02/26 02:37:55;;;;;;;2.80;1.60;;;1.40;85.30;;;;;;5073656;28;20277;-69
2023/02/26 02:40:28;;;;;;;2.70;1.33;;;1.30;84.90;;;;;;5067319;28;20246;-71
2023/02/26 02:43:01;;;;;;;2.70;1.63;;;1.30;84.70;;;;;;5053198;28;20618;-70
2023/02/26 02:45:43;;;;;;;2.33;1.20;;;1.30;84.90;;;;;;5073192;28;20641;-70
2023/02/26 02:48:17;;;;;;;2.65;1.50;;;1.30;85.20;;;;;;5072601;28;20190;-70
2023/02/26 02:50:48;;;;;;;2.30;1.30;;;1.30;85.10;;;;;;5060102;28;20550;-71
2023/02/26 02:53:21;;;;;;;2.25;1.40;;;1.30;85.10;;;;;;5072337;28;20227;-70
2023/02/26 02:55:54;;;;;;;3.00;1.80;;;1.20;85.00;;;;;;5069801;28;20187;-69
2023/02/26 02:58:25;;;;;;;5.13;1.63;;;1.30;84.60;;;;;;5071881;28;20267;-70
2023/02/26 03:00:58;;;;;;;2.75;1.85;;;1.20;84.10;;;;;;5053346;28;20221;-70
2023/02/26 03:03:32;;;;;;;3.65;1.60;;;1.20;83.70;;;;;;5014182;28;20353;-70
2023/02/26 03:06:02;;;;;;;3.05;1.55;;;1.20;83.70;;;;;;5033159;28;20195;-69
2023/02/26 03:08:34;;;;;;;2.92;1.40;;;1.10;83.30;;;;;;5032588;28;20189;-69
2023/02/26 03:11:01;;;;;;;2.55;1.40;;;1.10;83.10;;;;;;5013466;28;20197;-69
2023/02/26 03:13:29;;;;;;;2.83;1.50;;;1.10;83.00;;;;;;5013556;28;20216;-70
2023/02/26 03:16:04;;;;;;;2.65;1.30;;;1.10;82.60;;;;;;5033145;28;20203;-70
2023/02/26 03:18:46;;;;;;;3.13;1.73;;;1.10;83.20;;;;;;5032183;28;20219;-70
2023/02/26 03:21:20;;;;;;;3.22;1.90;;;1.00;83.30;;;;;;5013182;28;20651;-70
2023/02/26 03:23:54;;;;;;;2.58;1.50;;;1.00;83.20;;;;;;5015648;28;20184;-69
2023/02/26 03:26:29;;;;;;;5.20;1.75;;;1.10;83.50;;;;;;5032825;28;20192;-69
2023/02/26 03:29:04;;;;;;;2.97;1.42;;;1.00;83.90;;;;;;5028582;28;20272;-69
2023/02/26 03:31:35;;;;;;;3.42;1.65;;;1.00;84.20;;;;;;5012993;28;20195;-69
2023/02/26 03:34:09;;;;;;;4.57;2.05;;;1.00;84.50;;;;;;5021932;28;20192;-69
2023/02/26 03:36:40;;;;;;;3.17;1.35;;;1.00;85.20;;;;;;5031932;28;20647;-70
2023/02/26 03:39:12;;;;;;;2.97;1.75;;;1.00;85.00;;;;;;5022245;28;20235;-70
2023/02/26 03:41:45;;;;;;;2.42;1.55;;;1.00;84.50;;;;;;5012880;28;20191;-73
2023/02/26 03:44:19;;;;;;;2.55;1.30;;;0.90;83.10;;;;;;5022812;28;20556;-69
2023/02/26 03:46:50;;;;;;;2.70;1.30;;;0.90;82.50;;;;;;5032791;28;20206;-69
2023/02/26 03:49:26;;;;;;;2.58;1.50;;;0.90;81.70;;;;;;5021577;28;20191;-69
2023/02/26 03:51:54;;;;;;;2.55;1.30;;;0.90;80.40;;;;;;5012398;28;20440;-69
2023/02/26 03:54:26;;;;;;;3.55;1.20;;;0.90;79.30;;;;;;5014009;28;20675;-70
2023/02/26 03:56:53;;;;;;;4.30;1.50;;;0.80;78.80;;;;;;5012063;28;20191;-70
2023/02/26 03:59:21;;;;;;;2.40;1.20;;;0.80;78.20;;;;;;5018765;28;20191;-69
2023/02/26 04:01:53;;;;;;;2.20;1.10;;;0.80;78.10;;;;;;5032352;28;20231;-70
2023/02/26 04:04:27;;;;;;;3.85;1.27;;;0.80;78.00;;;;;;5051917;28;20191;-69
2023/02/26 04:06:55;;;;;;;3.05;1.10;;;0.70;78.00;;;;;;5061556;28;20186;-70
2023/02/26 04:09:25;;;;;;;2.97;2.15;;;0.70;78.20;;;;;;5072129;28;20197;-69
2023/02/26 04:11:54;;;;;;;2.25;1.25;;;0.70;78.40;;;;;;5062565;28;20183;-69
2023/02/26 04:14:22;;;;;;;4.40;1.73;;;0.60;78.70;;;;;;5066622;28;20613;-69
2023/02/26 04:16:49;;;;;;;2.60;1.70;;;0.60;79.00;;;;;;5063746;28;20582;-69
2023/02/26 04:19:16;;;;;;;2.70;1.30;;;0.60;79.20;;;;;;5051938;28;20222;-70
2023/02/26 04:21:45;;;;;;;3.65;1.70;;;0.60;78.80;;;;;;5057648;28;20580;-73
2023/02/26 04:24:13;;;;;;;3.22;1.45;;;0.50;79.10;;;;;;5057960;28;20194;-70
2023/02/26 04:26:40;;;;;;;4.70;1.73;;;0.50;79.20;;;;;;5056869;28;20230;-70
2023/02/26 04:29:07;;;;;;;3.30;1.70;;;0.50;79.20;;;;;;5072001;28;20528;-71
2023/02/26 04:31:36;;;;;;;3.35;1.60;;;0.50;79.50;;;;;;5067262;28;20184;-70
2023/02/26 04:34:04;;;;;;;3.90;1.80;;;0.50;79.40;;;;;;5063396;28;20190;-69
2023/02/26 04:36:31;;;;;;;3.25;1.55;;;0.50;79.60;;;;;;5068056;28;20527;-70
2023/02/26 04:39:01;;;;;;;3.00;1.40;;;0.50;79.90;;;;;;5062589;28;20218;-70
2023/02/26 04:41:29;;;;;;;3.80;1.70;;;0.50;79.90;;;;;;5068771;28;20191;-69
2023/02/26 04:44:00;;;;;;;3.15;1.52;;;0.40;78.80;;;;;;5051802;28;20187;-69
2023/02/26 04:46:27;;;;;;;4.60;1.80;;;0.40;78.80;;;;;;5055752;28;20190;-69
2023/02/26 04:48:55;;;;;;;4.65;1.63;;;0.40;78.50;;;;;;5065501;28;20244;-69
2023/02/26 04:51:22;;;;;;;3.28;1.30;;;0.40;78.10;;;;;;5055582;28;20194;-70
2023/02/26 04:53:49;;;;;;;4.18;1.35;;;0.40;78.40;;;;;;5075715;28;20252;-69
2023/02/26 04:56:18;;;;;;;2.35;1.35;;;0.30;77.70;;;;;;5075675;28;20190;-69
2023/02/26 04:58:48;;;;;;;4.03;1.60;;;0.30;77.80;;;;;;5055625;28;20214;-69
2023/02/26 05:01:16;;;;;;;3.00;1.45;;;0.30;78.00;;;;;;5069486;28;20226;-69
2023/02/26 05:03:43;;;;;;;2.25;1.50;;;0.20;77.20;;;;;;5075523;28;20644;-69
2023/02/26 05:06:11;;;;;;;3.75;1.52;;;0.20;77.10;;;;;;5061918;28;20290;-69
2023/02/26 05:08:41;;;;;;;3.95;2.13;;;0.20;77.50;;;;;;5055674;28;20202;-70
2023/02/26 05:11:08;;;;;;;4.60;2.08;;;0.20;76.30;;;;;;5067798;28;20194;-69
2023/02/26 05:13:37;;;;;;;2.45;1.60;;;0.20;76.10;;;;;;5075546;28;20195;-69
2023/02/26 05:16:06;;;;;;;4.20;2.10;;;0.10;76.20;;;;;;5063632;28;20210;-69
2023/02/26 05:18:33;;;;;;;4.97;1.67;;;0.10;76.30;;;;;;5055698;28;20228;-69
2023/02/26 05:21:00;;;;;;;5.05;2.67;;;0.10;76.30;;;;;;5065140;28;20205;-69
2023/02/26 05:23:27;;;;;;;2.55;1.30;;;0.10;76.10;;;;;;5061845;28;20287;-69
2023/02/26 05:25:56;;;;;;;2.60;1.38;;;0.10;75.80;;;;;;5063838;28;20188;-70
2023/02/26 05:28:23;;;;;;;3.55;1.13;;;0.10;75.80;;;;;;5064407;28;20191;-70
2023/02/26 05:30:52;;;;;;;2.50;1.75;;;0.10;76.00;;;;;;5067668;28;20197;-69
2023/02/26 05:33:20;;;;;;;2.22;1.13;;;0.10;76.00;;;;;;5075010;28;20194;-69
2023/02/26 05:35:47;;;;;;;3.78;2.10;;;0.10;75.90;;;;;;5062129;28;20198;-69
2023/02/26 05:38:15;;;;;;;4.55;1.83;;;0.10;76.10;;;;;;5055016;28;20214;-70
2023/02/26 05:40:42;;;;;;;5.80;1.35;;;0.10;76.30;;;;;;5065657;28;20186;-69
2023/02/26 05:43:10;;;;;;;2.83;1.65;;;0.10;76.10;;;;;;5074897;28;20197;-70
2023/02/26 05:45:38;;;;;;;4.80;1.30;;;0.10;76.20;;;;;;5064953;28;20213;-70
2023/02/26 05:48:07;;;;;;;4.22;1.80;;;0.10;76.20;;;;;;5054419;28;20191;-69
2023/02/26 05:50:34;;;;;;;4.75;1.52;;;0.10;75.30;;;;;;5063240;28;20186;-69
2023/02/26 05:53:01;;;;;;;2.60;1.80;;;0.10;75.50;;;;;;5061877;28;20248;-69
2023/02/26 05:55:29;;;;;;;6.72;1.60;;;0.10;75.40;;;;;;5061836;28;20651;-69
2023/02/26 05:57:56;;;;;;;4.10;1.88;;;0.10;75.20;;;;;;5074399;28;20680;-70
2023/02/26 06:00:23;;;;;;;2.88;1.60;;;0.10;75.30;;;;;;5067761;28;20479;-70
2023/02/26 06:02:50;;;;;;;5.50;1.80;;;0.10;75.30;;;;;;5054474;28;20222;-69
2023/02/26 06:05:19;;;;;;;5.88;2.05;;;0.10;75.00;;;;;;5068460;28;20196;-70
2023/02/26 06:07:48;;;;;;;3.28;1.73;;;0.10;74.90;;;;;;5074417;28;20718;-70
2023/02/26 06:10:15;;;;;;;2.97;1.67;;;0.10;74.50;;;;;;5060654;28;20190;-69
2023/02/26 06:12:43;;;;;;;4.28;1.70;;;0.10;74.70;;;;;;5054522;28;20194;-70
2023/02/26 06:15:10;;;;;;;2.95;1.73;;;0.10;74.80;;;;;;5066112;28;20203;-70
2023/02/26 06:17:39;;;;;;;4.53;2.10;;;0.10;74.80;;;;;;5058998;28;20192;-69
2023/02/26 06:20:07;;;;;;;4.22;2.33;;;0.10;74.80;;;;;;5064864;28;20186;-73
2023/02/26 06:22:36;;;;;;;4.85;1.90;;;0.10;75.10;;;;;;5074147;28;20186;-69
2023/02/26 06:25:07;;;;;;;4.97;1.92;;;0.10;74.90;;;;;;5063803;28;20219;-70
2023/02/26 06:27:34;;;;;;;3.22;1.92;;;0.10;74.90;;;;;;5054173;28;20197;-69
2023/02/26 06:30:02;;;;;;;4.05;1.90;;;0.10;74.80;;;;;;5073204;28;20229;-70
2023/02/26 06:32:29;;;;;;;4.00;2.38;;;0.10;74.70;;;;;;5074247;28;20191;-70
2023/02/26 06:34:56;;;;;;;7.82;3.15;;;0.00;74.60;;;;;;5059412;28;20192;-69
2023/02/26 06:37:24;;;;;;;5.78;2.90;;;0.00;74.50;;;;;;5054155;28;20220;-69
2023/02/26 06:39:53;;;;;;;4.47;3.35;;;0.00;74.30;;;;;;5067076;28;20276;-70
2023/02/26 06:42:20;;;;;;;2.50;1.70;;;0.10;74.50;;;;;;5054079;28;20202;-70
2023/02/26 06:44:47;;;;;;;3.22;1.67;;;0.10;74.60;;;;;;5068827;28;20191;-69
2023/02/26 06:47:14;;;;;;;2.80;1.85;;;0.10;73.70;;;;;;5074190;28;20194;-69
2023/02/26 06:49:42;;;;;;;7.03;2.00;;;0.10;73.70;;;;;;5059340;28;20673;-70
2023/02/26 06:52:09;;;;;;;3.15;1.95;;;0.10;73.90;;;;;;5059507;28;20223;-70
2023/02/26 06:54:36;;;;;;;3.78;2.30;;;0.10;73.90;;;;;;5074043;28;20194;-70
2023/02/26 06:57:05;;;;;;;3.20;1.80;;;0.20;73.80;;;;;;5068780;28;20276;-70
2023/02/26 06:59:32;;;;;;;2.80;1.98;;;0.20;73.50;;;;;;5053563;28;20230;-70
2023/02/26 07:02:00;;;;;;;4.35;1.80;;;0.20;73.80;;;;;;5056378;28;20222;-70
2023/02/26 07:04:27;;;;;;;6.30;2.13;;;0.30;74.10;;;;;;5062919;28;20661;-70
2023/02/26 07:06:55;;;;;;;3.50;2.20;;;0.30;73.70;;;;;;5055120;28;20196;-70
2023/02/26 07:09:22;;;;;;;4.75;2.53;;;0.40;73.40;;;;;;5072996;28;20191;-70
2023/02/26 07:11:49;;;;;;;5.13;3.08;;;0.50;72.50;;;;;;5065337;28;20188;-70
2023/02/26 07:14:18;;;;;;;3.20;2.10;;;0.50;72.20;;;;;;5053214;28;20207;-70
2023/02/26 07:16:45;;;;;;;3.33;2.10;;;0.60;72.30;;;;;;5066897;28;20201;-69
2023/02/26 07:19:13;;;;;;;4.97;2.33;;;0.60;71.80;;;;;;5073364;28;20220;-70
2023/02/26 07:21:40;;;;;;;4.28;2.40;;;0.70;71.20;;;;;;5060191;28;20217;-69
2023/02/26 07:24:10;;;;;;;2.70;1.83;;;0.80;70.50;;;;;;5053347;28;20683;-69
2023/02/26 07:26:38;;;;;;;3.97;1.77;;;1.00;70.30;;;;;;5063873;28;20190;-69
2023/02/26 07:29:05;;;;;;;4.30;1.73;;;1.10;69.20;;;;;;5057730;28;20275;-70
2023/02/26 07:31:34;;;;;;;6.05;2.08;;;1.20;68.20;;;;;;5062677;28;20191;-69
2023/02/26 07:34:02;;;;;;;4.50;1.67;;;1.30;67.60;;;;;;5073157;28;20203;-69
2023/02/26 07:36:29;;;;;;;6.80;1.95;;;1.30;66.90;;;;;;5063452;28;20703;-69
2023/02/26 07:38:56;;;;;;;2.90;1.70;;;1.40;66.20;;;;;;5052855;28;20630;-70
2023/02/26 07:41:23;;;;;;;9.73;1.80;;;1.40;65.90;;;;;;5067587;28;20697;-70
2023/02/26 07:43:50;;;;;;;3.15;1.40;;;1.50;65.70;;;;;;5072874;28;20191;-70
2023/02/26 07:46:18;;;;;;;5.53;2.00;;;1.60;64.90;;;;;;5058809;28;20222;-70
2023/02/26 07:48:47;;;;;;;3.50;1.98;;;1.60;64.20;;;;;;5053074;28;20282;-69
2023/02/26 07:51:15;;;;;;;3.85;2.35;;;1.70;64.50;;;;;;5064864;28;20934;-71
2023/02/26 07:53:42;;;;;;;3.20;1.80;;;1.70;63.60;;;;;;5056585;28;20190;-69
2023/02/26 07:56:09;;;;;;;2.85;1.80;;;1.80;63.40;;;;;;5063577;28;20275;-70
2023/02/26 07:58:37;;;;;;;4.22;1.95;;;1.90;62.80;;;;;;5065861;28;20236;-70
2023/02/26 08:01:05;;;;;;;3.67;1.58;;;2.00;62.80;;;;;;5058436;28;20211;-69
2023/02/26 08:03:33;;;;;;;5.22;2.35;;;2.00;62.20;;;;;;5058020;28;20236;-70
2023/02/26 08:06:01;;;;;;;3.17;1.75;;;1.90;62.30;;;;;;5052409;28;20233;-69
2023/02/26 08:08:29;;;;;;;4.13;2.22;;;1.80;62.20;;;;;;5053563;28;20190;-70
2023/02/26 08:11:02;;;;;;;5.05;1.88;;;1.80;61.80;;;;;;5052611;28;20201;-70
2023/02/26 08:13:29;;;;;;;3.63;1.92;;;1.70;61.70;;;;;;5055443;28;20185;-70
2023/02/26 08:15:58;;;;;;;7.43;1.92;;;1.70;62.00;;;;;;5072233;28;20709;-69
2023/02/26 08:18:25;;;;;;;4.75;2.97;;;1.70;62.80;;;;;;5069838;28;20197;-70
2023/02/26 08:20:52;;;;;;;3.28;1.90;;;1.70;62.70;;;;;;5051364;28;20199;-70
2023/02/26 08:23:21;;;;;;;4.03;1.98;;;1.70;63.00;;;;;;5053676;28;20608;-69
2023/02/26 08:25:49;;;;;;;3.45;2.00;;;1.70;62.90;;;;;;5072489;28;20204;-69
2023/02/26 08:28:18;;;;;;;4.30;1.77;;;1.70;63.20;;;;;;5071289;28;20191;-70
2023/02/26 08:30:45;;;;;;;6.43;1.80;;;1.70;63.10;;;;;;5052413;28;20198;-69
2023/02/26 08:33:13;;;;;;;2.97;1.85;;;1.80;63.30;;;;;;5056050;28;20717;-70
2023/02/26 08:35:40;;;;;;;5.18;1.90;;;1.80;62.60;;;;;;5042177;28;20234;-70
2023/02/26 08:38:09;;;;;;;7.05;2.30;;;1.80;62.30;;;;;;5068528;28;20231;-70
2023/02/26 08:40:37;;;;;;;6.65;2.65;;;1.90;62.00;;;;;;5052211;28;20243;-70
2023/02/26 08:43:05;;;;;;;2.92;1.85;;;1.90;62.00;;;;;;5054272;28;20189;-69
2023/02/26 08:45:32;;;;;;;6.10;2.30;;;1.80;62.30;;;;;;5072016;28;20278;-70
2023/02/26 08:48:00;;;;;;;3.80;1.90;;;1.80;61.90;;;;;;5060962;28;20193;-69
2023/02/26 08:50:27;;;;;;;3.28;2.10;;;1.80;61.30;;;;;;5052068;28;20659;-69
2023/02/26 08:52:54;;;;;;;3.10;1.90;;;1.70;61.30;;;;;;5060923;28;20192;-69
2023/02/26 08:55:22;;;;;;;2.65;1.90;;;1.70;61.70;;;;;;5071931;28;20228;-71
2023/02/26 08:57:51;;;;;;;4.47;1.60;;;1.70;62.00;;;;;;5071231;28;20189;-69
2023/02/26 09:00:19;;;;;;;3.45;2.20;;;1.70;62.10;;;;;;5071906;28;20227;-70
2023/02/26 09:02:46;;;;;;;3.88;1.70;;;1.60;62.40;;;;;;5062932;28;20708;-69
2023/02/26 09:05:14;;;;;;;2.70;1.85;;;1.60;62.00;;;;;;5051972;28;20190;-69
2023/02/26 09:07:42;;;;;;;3.80;2.20;;;1.60;62.40;;;;;;5058421;28;20233;-70
2023/02/26 09:10:11;;;;;;;4.95;3.08;;;1.70;62.70;;;;;;5057680;28;20652;-70
2023/02/26 09:12:38;;;;;;;5.55;2.50;;;1.80;63.10;;;;;;5047918;28;20633;-72
2023/02/26 09:15:09;;;;;;;3.10;1.95;;;1.90;63.00;;;;;;5046406;28;20193;-69
2023/02/26 09:17:36;;;;;;;3.25;2.10;;;2.00;62.70;;;;;;5052756;28;20320;-69
2023/02/26 09:20:05;;;;;;;5.68;1.95;;;2.10;62.70;;;;;;5050193;28;20625;-70
2023/02/26 09:22:32;;;;;;;3.60;2.30;;;2.10;62.60;;;;;;5049582;28;20228;-70
2023/02/26 09:25:00;;;;;;;3.38;2.20;;;2.20;62.60;;;;;;5049978;28;20291;-69
2023/02/26 09:27:27;;;;;;;4.13;2.35;;;2.20;62.40;;;;;;5049682;28;20212;-69
2023/02/26 09:29:54;;;;;;;4.88;2.53;;;2.30;62.50;;;;;;5042233;28;20197;-70
2023/02/26 09:32:25;;;;;;;5.93;2.20;;;2.30;62.10;;;;;;5051661;28;20596;-69
2023/02/26 09:34:53;;;;;;;3.78;2.08;;;2.30;62.40;;;;;;5053285;28;20201;-70
2023/02/26 09:37:20;;;;;;;2.60;1.90;;;2.40;62.00;;;;;;5052286;28;20225;-69
2023/02/26 09:39:47;;;;;;;6.93;2.45;;;2.40;62.00;;;;;;5052453;28;20314;-70
2023/02/26 09:42:32;;;;;;;3.90;2.60;;;2.40;61.80;;;;;;5053355;28;20674;-70
2023/02/26 09:45:00;;;;;;;4.60;2.22;;;2.50;62.30;;;;;;5052665;28;20190;-70
2023/02/26 09:47:38;;;;;;;8.75;4.07;;;2.70;62.00;;;;;;5053407;28;20202;-69
2023/02/26 09:50:13;;;;;;;5.95;3.88;;;2.90;61.90;;;;;;5053352;28;20201;-69
2023/02/26 09:52:46;;;;;;;4.75;2.92;;;3.40;60.90;;;;;;5044076;28;20601;-71
2023/02/26 09:55:17;;;;;;;3.72;2.63;;;5.70;63.50;;;;;;5052397;28;20588;-69
2023/02/26 09:57:47;;;;;;;3.38;1.73;;;11.00;51.10;;;;;;5051752;28;20195;-70
2023/02/26 10:00:28;;;;;;;4.30;2.42;;;12.20;39.80;;;;;;5052165;28;20232;-71
2023/02/26 10:03:05;;;;;;;5.68;1.77;;;11.30;38.10;;;;;;5052161;28;20236;-70
2023/02/26 10:05:41;;;;;;;3.28;2.20;;;10.20;38.70;;;;;;5051951;28;20194;-69
2023/02/26 10:08:14;;;;;;;3.75;2.75;;;9.20;40.30;;;;;;5048242;28;20182;-70
2023/02/26 10:10:59;;;;;;;4.50;3.08;;;8.40;42.20;;;;;;5052491;28;20182;-71
2023/02/26 10:13:37;;;;;;;8.10;3.15;;;7.80;43.70;;;;;;5048635;28;20190;-69
2023/02/26 10:16:11;;;;;;;6.20;2.28;;;7.20;44.20;;;;;;5052543;28;20186;-71
2023/02/26 10:18:46;;;;;;;5.32;3.35;;;6.70;44.90;;;;;;5052199;28;20209;-71
2023/02/26 10:21:20;;;;;;;5.75;3.17;;;6.30;45.60;;;;;;5050921;28;20300;-72
2023/02/26 10:23:53;;;;;;;3.75;2.40;;;5.90;46.20;;;;;;5054474;28;20236;-70
2023/02/26 10:26:24;;;;;;;3.30;2.33;;;5.50;45.20;;;;;;5051718;28;20760;-70
2023/02/26 10:29:00;;;;;;;5.00;2.80;;;5.20;46.70;;;;;;5049774;28;20191;-69
2023/02/26 10:31:35;;;;;;;3.30;2.00;;;5.00;46.90;;;;;;5051985;28;20661;-69
2023/02/26 10:34:18;;;;;;;4.30;3.20;;;4.70;47.30;;;;;;5047061;28;20222;-69
2023/02/26 10:36:52;;;;;;;5.03;2.50;;;4.60;47.70;;;;;;5052212;28;20629;-70
2023/02/26 10:39:34;;;;;;;3.15;1.80;;;4.40;48.50;;;;;;5044417;28;20355;-74
2023/02/26 10:42:06;;;;;;;3.13;2.03;;;4.30;49.80;;;;;;5046788;28;20194;-71
2023/02/26 10:44:41;;;;;;;3.20;1.85;;;4.30;49.80;;;;;;5050428;28;20213;-70
2023/02/26 10:47:16;;;;;;;3.53;1.67;;;4.10;50.10;;;;;;5049856;28;20189;-70
2023/02/26 10:49:55;;;;;;;3.05;1.33;;;3.80;50.00;;;;;;5051248;28;20182;-72
2023/02/26 10:52:24;;;;;;;3.78;1.55;;;3.60;51.70;;;;;;5051074;28;20213;-71
2023/02/26 10:55:18;;;;;;;2.60;1.90;;;3.50;51.90;;;;;;5052294;28;20183;-70
2023/02/26 10:57:52;;;;;;;3.40;2.15;;;3.50;52.70;;;;;;5048967;28;20183;-70
2023/02/26 11:00:21;;;;;;;4.03;2.20;;;3.50;53.30;;;;;;5055187;28;20577;-70
2023/02/26 11:02:52;;;;;;;13.32;3.10;;;3.40;53.50;;;;;;5051835;28;20280;-70
2023/02/26 11:05:23;;;;;;;3.97;2.67;;;3.40;53.70;;;;;;5051464;28;20190;-70
2023/02/26 11:07:55;;;;;;;4.68;2.85;;;3.40;53.90;;;;;;5049543;28;20179;-69
2023/02/26 11:10:32;;;;;;;5.30;1.75;;;3.40;53.70;;;;;;5049469;28;20237;-69
2023/02/26 11:13:00;;;;;;;3.22;1.70;;;3.40;53.80;;;;;;5051357;28;20284;-69
2023/02/26 11:15:28;;;;;;;2.60;2.00;;;3.30;54.10;;;;;;5051115;28;20193;-69
2023/02/26 11:17:58;;;;;;;3.88;2.30;;;3.30;54.90;;;;;;5046874;28;20186;-69
2023/02/26 11:20:33;;;;;;;3.25;1.90;;;3.20;55.00;;;;;;5054845;28;20221;-69
2023/02/26 11:23:03;;;;;;;2.83;1.90;;;3.20;55.20;;;;;;5046533;28;20189;-68
2023/02/26 11:25:33;;;;;;;3.28;2.10;;;3.20;55.40;;;;;;5050573;28;20228;-70
2023/02/26 11:28:03;;;;;;;4.55;3.03;;;3.30;55.30;;;;;;5051754;28;20202;-69
2023/02/26 11:30:35;;;;;;;4.45;3.65;;;3.60;55.30;;;;;;5052781;28;20190;-68
2023/02/26 11:33:14;;;;;;;3.25;2.30;;;4.10;55.40;;;;;;5057493;28;20281;-68
2023/02/26 11:35:44;;;;;;;6.13;4.32;;;4.50;53.80;;;;;;5049605;28;20190;-68
2023/02/26 11:38:18;;;;;;;7.28;4.50;;;4.60;53.40;;;;;;5050785;28;20202;-69
2023/02/26 11:40:49;;;;;;;5.00;2.88;;;4.50;52.40;;;;;;5050309;28;20250;-69
2023/02/26 11:43:19;;;;;;;4.00;3.20;;;4.40;53.10;;;;;;5049815;28;20668;-68
2023/02/26 11:45:51;;;;;;;3.35;2.38;;;4.30;53.40;;;;;;5048235;28;20229;-68
2023/02/26 11:48:23;;;;;;;7.47;5.35;;;4.20;53.40;;;;;;5052358;28;20719;-68
2023/02/26 11:51:01;;;;;;;11.23;7.47;;;4.10;53.40;;;;;;5050424;28;20186;-68
2023/02/26 11:53:32;;;;;;;10.35;6.20;;;4.10;53.40;;;;;;5051923;28;20625;-69
2023/02/26 11:56:02;;;;;;;7.07;4.90;;;4.10;54.10;;;;;;5049954;28;20653;-68
2023/02/26 11:58:34;;;;;;;7.28;4.40;;;4.20;53.50;;;;;;5050913;28;20194;-69
2023/02/26 12:01:02;;;;;;;8.07;4.88;;;4.10;53.50;;;;;;5045758;28;20305;-70
2023/02/26 12:03:34;;;;;;;3.75;2.92;;;4.10;54.10;;;;;;5052772;28;20201;-69
2023/02/26 12:06:03;;;;;;;9.02;5.38;;;4.10;54.50;;;;;;5056706;28;21012;-69
2023/02/26 12:08:37;;;;;;;3.28;2.30;;;4.10;54.20;;;;;;5050130;28;20174;-69
2023/02/26 12:11:37;;;;;;;3.65;2.70;;;4.10;53.00;;;;;;5072576;28;20594;-68
2023/02/26 12:14:29;;;;;;;5.22;3.38;;;4.10;53.60;;;;;;5067033;28;20194;-69
2023/02/26 12:17:05;;;;;;;4.90;1.83;;;4.20;53.80;;;;;;5073061;28;20239;-68
2023/02/26 12:19:42;;;;;;;3.72;2.67;;;4.20;52.50;;;;;;5072781;28;20543;-68
2023/02/26 12:22:25;;;;;;;5.35;3.20;;;4.30;52.70;;;;;;5072620;28;20189;-68
2023/02/26 12:25:13;;;;;;;3.05;1.90;;;4.20;53.00;;;;;;5072466;28;20186;-68
2023/02/26 12:28:08;;;;;;;7.15;6.18;;;4.20;53.50;;;;;;5072709;28;20189;-69
2023/02/26 12:31:15;;;;;;;7.47;6.15;;;4.10;53.00;;;;;;5067508;28;20187;-69
2023/02/26 12:33:50;;;;;;;6.70;4.85;;;4.00;53.00;;;;;;5046806;28;20198;-69
2023/02/26 12:36:30;;;;;;;4.40;3.13;;;4.10;53.40;;;;;;5052324;28;20221;-68
2023/02/26 12:39:11;;;;;;;2.88;2.20;;;4.20;53.30;;;;;;5052494;28;20194;-68
2023/02/26 12:41:54;;;;;;;4.40;2.80;;;4.30;52.40;;;;;;5052329;28;20313;-66
2023/02/26 12:44:35;;;;;;;3.53;2.70;;;4.20;52.60;;;;;;5052531;28;20186;-68
2023/02/26 12:47:21;;;;;;;3.42;2.50;;;4.20;53.20;;;;;;5052748;28;20199;-68
2023/02/26 12:50:04;;;;;;;3.53;2.05;;;4.20;53.00;;;;;;5052360;28;20251;-68
2023/02/26 12:52:54;;;;;;;6.00;2.72;;;4.10;53.10;;;;;;5052198;28;20635;-68
2023/02/26 12:55:35;;;;;;;3.40;2.20;;;4.30;53.30;;;;;;5052619;28;20230;-68
2023/02/26 12:58:35;;;;;;;3.08;1.75;;;7.10;51.40;;;;;;5052179;28;20190;-69
2023/02/26 13:01:23;;;;;;;2.40;1.70;;;9.20;43.50;;;;;;5052342;28;20221;-69
2023/02/26 13:04:22;;;;;;;5.72;2.20;;;9.00;43.00;;;;;;5052353;28;20620;-69
2023/02/26 13:07:03;;;;;;;3.00;2.22;;;8.70;42.20;;;;;;5054422;28;20237;-68
2023/02/26 13:09:43;;;;;;;5.35;2.90;;;7.90;42.30;;;;;;5056136;28;20194;-68
2023/02/26 13:12:31;;;;;;;3.47;2.00;;;7.20;43.70;;;;;;5056059;28;20736;-68
2023/02/26 13:15:16;;;;;;;3.00;2.30;;;6.50;44.90;;;;;;5056096;28;20229;-68
2023/02/26 13:17:50;;;;;;;2.67;2.10;;;5.90;46.50;;;;;;5055974;28;20248;-68
2023/02/26 13:20:22;;;;;;;3.50;2.67;;;5.40;48.20;;;;;;5055888;28;20577;-68
2023/02/26 13:22:54;;;;;;;2.92;2.38;;;5.10;48.80;;;;;;5056252;28;20248;-68